CheckWX is a tool to help pilots better visualize weather data.  It is not intended as a substitute for an official pre-flight weather briefing.

07:04:07 UTC

KGJT METAR
Grand Junction Regional Airport
Grand Junction, Colorado, USA
Current

11 mins ago

KGJT 190653Z AUTO 10009KT 10SM FEW100 19/02 A2997 RMK AO2 SLP080 T01890022 402890106
Observed
Sep-19 @ 06:53 UTC
Wind
  • 100° at 9 KTS
Visibility
10 SM
Flight Rules
VFR
Cloud Levels
  • Few at 10,000' AGL
Temperature
19°C / 66°F
Dewpoint
C / 36°F
Humidity
32%
Altimeter
29.97" Hg
Pressure
1014.92 hPa
Previous

1 hour ago

KGJT 190553Z AUTO 11007KT 10SM CLR 19/03 A2997 RMK AO2 SLP081 T01940028 10278 20194 58000
Observed
Sep-19 @ 05:53 UTC
Wind
  • 110° at 7 KTS
Visibility
10 SM
Flight Rules
VFR
Cloud Levels
  • Clear skies
Temperature
19°C / 66°F
Dewpoint
C / 37°F
Humidity
35%
Altimeter
29.97" Hg
Pressure
1014.92 hPa
Previous

2 hours ago

KGJT 190453Z AUTO 11009KT 10SM CLR 20/02 A2997 RMK AO2 SLP085 T02000022
Observed
Sep-19 @ 04:53 UTC
Wind
  • 110° at 9 KTS
Visibility
10 SM
Flight Rules
VFR
Cloud Levels
  • Clear skies
Temperature
20°C / 68°F
Dewpoint
C / 36°F
Humidity
30%
Altimeter
29.97" Hg
Pressure
1014.92 hPa